Delta Virtual Airport Information Service

Sint Maarten Princess Juliana International Airport

ICAO: TNCM Country: Netherlands
Latitude: 18.041 Longitude: -63.1089
Latest Arrival : DAL1894 (KATL-TNCM) Latest Departure : DAC006 (TNCM-KMIA)


WX CaptureLIVE
Data provided by noaa.gov | Fetched at 08:50:27

METAR : TNCM 041400Z 19004KT 120V240 9999 -SHRA SCT016 SCT035 26/21 Q1019 NOSIG

TAF : TNCM 041135Z 0412/0512 11009KT P6SM FEW018 FM041400 13010KT P6SM FEW018


Runway Data for TNCM
Data provided by openaviationdata.com

Runway ID Mag Var Hdg Length Elevation Surface ILS Freq ILS Id ILS Slope
10 -13 95° 7670 ft 0 ft Asphalt -- -- --
28 -13 275° 7670 ft 0 ft Asphalt -- -- --

Sint Maarten Princess Juliana International Airport, Netherlands
Use only for reference purposes



Not for navigational purposes.